Time;durP1;ratioP1;P1;durP2;ratioP2;P2;SDS_P1;SDS_P2;PMS_P1;PMS_P2;Temp;Humidity;BMP_temperature;BMP_pressure;BME280_temperature;BME280_humidity;BME280_pressure;Samples;Min_cycle;Max_cycle;Signal;HPM_P1;HPM_P2
2021/11/24 00:00:00;;;;;;;9.30;4.53;;;6.90;99.90;;;;;;5015889;28;20196;-88
2021/11/24 00:02:26;;;;;;;5.70;3.53;;;6.90;99.90;;;;;;5015870;28;20176;-91
2021/11/24 00:04:52;;;;;;;9.43;3.70;;;6.90;99.90;;;;;;5016094;28;20253;-90
2021/11/24 00:07:17;;;;;;;8.83;4.67;;;6.80;99.90;;;;;;5022187;28;20234;-89
2021/11/24 00:09:43;;;;;;;7.73;3.63;;;6.80;99.90;;;;;;5005747;28;20234;-89
2021/11/24 00:12:09;;;;;;;7.70;4.20;;;6.90;99.90;;;;;;5022157;28;20231;-89
2021/11/24 00:14:34;;;;;;;9.77;5.10;;;6.90;99.90;;;;;;5022108;28;20178;-89
2021/11/24 00:17:00;;;;;;;5.70;3.73;;;6.90;99.90;;;;;;5015565;28;20189;-88
2021/11/24 00:19:26;;;;;;;7.80;4.97;;;6.80;99.90;;;;;;5015028;28;20222;-89
2021/11/24 00:21:51;;;;;;;12.03;5.37;;;6.80;99.90;;;;;;5015238;28;20240;-89
2021/11/24 00:24:18;;;;;;;12.57;5.57;;;6.80;99.90;;;;;;5014804;28;20173;-87
2021/11/24 00:26:43;;;;;;;8.57;5.67;;;6.70;99.90;;;;;;5014890;28;20202;-89
2021/11/24 00:29:09;;;;;;;10.27;5.60;;;6.70;99.90;;;;;;5014540;28;20444;-88
2021/11/24 00:31:35;;;;;;;11.73;5.40;;;6.60;99.90;;;;;;5014840;28;20188;-89
2021/11/24 00:34:01;;;;;;;8.40;4.57;;;6.50;99.90;;;;;;5011303;28;20176;-90
2021/11/24 00:36:27;;;;;;;8.47;4.57;;;6.50;99.90;;;;;;5003571;28;20267;-90
2021/11/24 00:38:53;;;;;;;7.60;4.60;;;6.50;99.90;;;;;;5018455;28;20181;-89
2021/11/24 00:41:18;;;;;;;8.73;4.43;;;6.50;99.90;;;;;;5014658;28;20484;-91
2021/11/24 00:43:44;;;;;;;10.00;4.97;;;6.50;99.90;;;;;;5014895;28;20213;-90
2021/11/24 00:46:10;;;;;;;9.50;5.13;;;6.50;99.90;;;;;;4997221;28;20177;-90
2021/11/24 00:48:36;;;;;;;7.63;4.40;;;6.40;99.90;;;;;;5014416;28;20201;-88
2021/11/24 00:51:02;;;;;;;6.13;4.10;;;6.40;99.90;;;;;;4997180;28;20182;-89
2021/11/24 00:53:28;;;;;;;10.00;5.83;;;6.40;99.90;;;;;;5014370;28;20899;-90
2021/11/24 00:55:54;;;;;;;9.23;4.80;;;6.40;99.90;;;;;;5014219;28;20510;-90
2021/11/24 00:58:20;;;;;;;9.03;4.27;;;6.40;99.90;;;;;;5014686;28;20206;-90
2021/11/24 01:00:47;;;;;;;7.10;3.90;;;6.40;99.90;;;;;;5014676;28;20212;-89
2021/11/24 01:03:13;;;;;;;7.83;4.97;;;6.50;99.90;;;;;;5013906;28;20177;-89
2021/11/24 01:05:39;;;;;;;7.40;4.40;;;6.50;99.90;;;;;;4996973;28;20518;-89
2021/11/24 01:08:04;;;;;;;6.97;4.17;;;6.40;99.90;;;;;;5014445;28;20843;-90
2021/11/24 01:10:30;;;;;;;7.97;3.93;;;6.40;99.90;;;;;;5014237;28;20430;-90
2021/11/24 01:12:56;;;;;;;10.70;4.77;;;6.50;99.90;;;;;;5014258;28;20183;-90
2021/11/24 01:15:22;;;;;;;8.80;4.50;;;6.50;99.90;;;;;;4996892;28;20186;-91
2021/11/24 01:17:47;;;;;;;8.23;3.67;;;6.40;99.90;;;;;;5014391;28;20251;-89
2021/11/24 01:20:14;;;;;;;6.50;3.60;;;6.50;99.90;;;;;;5014800;28;20468;-89
2021/11/24 01:22:41;;;;;;;6.87;4.63;;;6.40;99.90;;;;;;5014326;28;20179;-90
2021/11/24 01:25:07;;;;;;;7.00;3.80;;;6.50;99.90;;;;;;5014383;28;20423;-92
2021/11/24 01:27:33;;;;;;;6.77;4.87;;;6.50;99.90;;;;;;4998627;28;20431;-90
2021/11/24 01:29:58;;;;;;;6.63;4.10;;;6.60;99.90;;;;;;5016183;28;20477;-90
2021/11/24 01:32:24;;;;;;;6.90;3.70;;;6.50;99.90;;;;;;5017547;28;20415;-86
2021/11/24 01:34:50;;;;;;;6.83;4.07;;;6.50;99.90;;;;;;5023260;28;20173;-89
2021/11/24 01:37:15;;;;;;;9.43;4.23;;;6.60;99.90;;;;;;5021206;28;20518;-92
2021/11/24 01:39:41;;;;;;;9.00;5.13;;;6.60;99.90;;;;;;5020321;28;20213;-89
2021/11/24 01:42:06;;;;;;;7.47;4.40;;;6.60;99.90;;;;;;5002678;28;20187;-91
2021/11/24 01:44:32;;;;;;;11.10;6.17;;;6.80;99.90;;;;;;5019035;28;20168;-91
2021/11/24 01:47:00;;;;;;;10.57;5.97;;;6.90;99.90;;;;;;5021791;28;20661;-92
2021/11/24 01:49:27;;;;;;;7.57;3.87;;;6.90;99.90;;;;;;5020835;28;20180;-92
2021/11/24 01:51:53;;;;;;;7.90;5.30;;;6.90;99.90;;;;;;5011352;28;20434;-91
2021/11/24 01:54:19;;;;;;;9.60;4.70;;;6.90;99.90;;;;;;5014511;28;20415;-93
2021/11/24 01:56:45;;;;;;;10.40;5.20;;;6.90;99.90;;;;;;5014117;28;20479;-92
2021/11/24 01:59:13;;;;;;;8.60;5.47;;;6.90;99.90;;;;;;5014516;28;20419;-91
2021/11/24 02:01:41;;;;;;;9.43;4.67;;;6.90;99.90;;;;;;5015962;28;20423;-90
2021/11/24 02:04:08;;;;;;;11.77;5.83;;;7.40;99.90;;;;;;5016204;28;20413;-92
2021/11/24 02:06:33;;;;;;;7.80;4.87;;;6.90;99.90;;;;;;5002978;28;20428;-92
2021/11/24 02:08:59;;;;;;;10.47;4.20;;;6.90;99.90;;;;;;5025291;28;20453;-92
2021/11/24 02:11:25;;;;;;;8.20;5.00;;;6.90;99.90;;;;;;5014184;28;20180;-92
2021/11/24 02:13:51;;;;;;;7.90;5.33;;;6.90;99.90;;;;;;5003150;28;20201;-92
2021/11/24 02:16:16;;;;;;;8.33;4.70;;;6.90;99.90;;;;;;5019430;28;20450;-92
2021/11/24 02:18:42;;;;;;;9.27;5.23;;;6.90;99.90;;;;;;5019914;28;20169;-92
2021/11/24 02:21:07;;;;;;;9.33;5.30;;;6.90;99.90;;;;;;5020779;28;20601;-92
2021/11/24 02:23:33;;;;;;;7.00;4.80;;;7.00;99.90;;;;;;5003471;28;20177;-91
2021/11/24 02:25:59;;;;;;;16.00;5.30;;;7.00;99.90;;;;;;5020694;28;20239;-92
2021/11/24 02:28:24;;;;;;;6.63;4.60;;;7.00;99.90;;;;;;5035925;28;20175;-91
2021/11/24 02:30:51;;;;;;;7.60;5.00;;;7.00;99.90;;;;;;5035516;28;20245;-93
2021/11/24 02:33:16;;;;;;;11.77;4.93;;;6.90;99.90;;;;;;5033116;28;20252;-93
2021/11/24 02:35:46;;;;;;;9.30;4.90;;;6.90;99.90;;;;;;5033823;28;20419;-92
2021/11/24 02:38:16;;;;;;;10.53;6.10;;;7.00;99.90;;;;;;5032047;28;20173;-89
2021/11/24 02:40:42;;;;;;;8.53;6.00;;;7.20;99.90;;;;;;5026745;28;20824;-89
2021/11/24 02:43:09;;;;;;;7.40;5.70;;;7.00;99.90;;;;;;5026115;28;20467;-90
2021/11/24 02:45:35;;;;;;;6.67;5.10;;;7.10;99.90;;;;;;5025181;28;20149;-88
2021/11/24 02:48:01;;;;;;;9.57;5.70;;;7.00;99.90;;;;;;5024544;28;20408;-89
2021/11/24 02:50:27;;;;;;;8.70;5.90;;;7.00;99.90;;;;;;5034298;28;20420;-90
2021/11/24 02:52:53;;;;;;;7.67;5.80;;;7.00;99.90;;;;;;5027137;28;20541;-89
2021/11/24 02:55:19;;;;;;;12.37;6.37;;;7.00;99.90;;;;;;5016633;28;20510;-87
2021/11/24 02:57:48;;;;;;;10.73;5.53;;;7.10;99.90;;;;;;5016373;28;20217;-90
2021/11/24 03:00:20;;;;;;;10.30;5.77;;;7.10;99.90;;;;;;5015918;28;20942;-87
2021/11/24 03:02:46;;;;;;;9.70;5.50;;;7.10;99.90;;;;;;4996822;28;20500;-88
2021/11/24 03:05:13;;;;;;;11.33;5.90;;;7.10;99.90;;;;;;4997124;28;20450;-89
2021/11/24 03:07:39;;;;;;;11.10;5.97;;;7.10;99.90;;;;;;5000964;28;20428;-89
2021/11/24 03:10:06;;;;;;;14.00;5.40;;;7.10;99.90;;;;;;4996541;28;20460;-90
2021/11/24 03:12:33;;;;;;;7.53;4.77;;;7.10;99.90;;;;;;4995356;28;21137;-91
2021/11/24 03:14:59;;;;;;;9.67;5.67;;;7.10;99.90;;;;;;4996041;28;20431;-88
2021/11/24 03:17:24;;;;;;;8.90;6.30;;;7.10;99.90;;;;;;4996001;28;20406;-90
2021/11/24 03:19:50;;;;;;;9.50;5.93;;;7.10;99.90;;;;;;4996075;28;20707;-89
2021/11/24 03:22:22;;;;;;;7.47;5.37;;;7.10;99.90;;;;;;4996193;28;20215;-91
2021/11/24 03:24:55;;;;;;;11.27;8.23;;;7.10;99.90;;;;;;4996276;28;20182;-91
2021/11/24 03:27:33;;;;;;;9.30;6.47;;;7.10;99.90;;;;;;4996625;28;20480;-90
2021/11/24 03:30:01;;;;;;;9.10;5.73;;;7.10;99.90;;;;;;4996569;28;20415;-89
2021/11/24 03:32:27;;;;;;;8.00;6.17;;;7.10;99.90;;;;;;4996005;28;20411;-92
2021/11/24 03:34:54;;;;;;;9.20;6.30;;;7.10;99.90;;;;;;4995423;28;20429;-91
2021/11/24 03:37:20;;;;;;;8.03;5.87;;;7.20;99.90;;;;;;4995830;28;20412;-89
2021/11/24 03:39:47;;;;;;;8.43;5.20;;;7.20;99.90;;;;;;4995943;28;20994;-92
2021/11/24 03:42:14;;;;;;;12.73;6.47;;;7.20;99.90;;;;;;4996154;28;20443;-91
2021/11/24 03:44:40;;;;;;;8.97;5.60;;;7.20;99.90;;;;;;4996047;28;20430;-92
2021/11/24 03:47:05;;;;;;;13.07;6.40;;;7.10;99.90;;;;;;4996193;28;20512;-92
2021/11/24 03:49:31;;;;;;;11.57;7.80;;;7.20;99.90;;;;;;4997112;28;20638;-92
2021/11/24 03:51:57;;;;;;;7.47;4.70;;;7.20;99.90;;;;;;4995915;28;20584;-89
2021/11/24 03:54:22;;;;;;;8.87;5.70;;;7.20;99.90;;;;;;4995457;28;20260;-90
2021/11/24 03:56:48;;;;;;;9.80;5.10;;;7.20;99.90;;;;;;5006106;28;20724;-89
2021/11/24 03:59:13;;;;;;;10.10;6.00;;;7.10;99.90;;;;;;5015320;28;20185;-89
2021/11/24 04:01:39;;;;;;;8.17;5.27;;;7.10;99.90;;;;;;5014887;28;20186;-91
2021/11/24 04:04:05;;;;;;;9.43;6.77;;;7.10;99.90;;;;;;5014548;28;20173;-92
2021/11/24 04:06:32;;;;;;;9.90;5.40;;;7.00;99.90;;;;;;4995637;28;20204;-90
2021/11/24 04:08:58;;;;;;;7.57;5.47;;;7.00;99.90;;;;;;4978091;28;20214;-89
2021/11/24 04:11:24;;;;;;;8.20;5.20;;;7.00;99.90;;;;;;4995021;28;20769;-90
2021/11/24 04:13:50;;;;;;;6.90;5.30;;;7.10;99.90;;;;;;4995094;28;20413;-88
2021/11/24 04:16:15;;;;;;;8.27;4.93;;;7.10;99.90;;;;;;4994417;28;20425;-90
2021/11/24 04:18:41;;;;;;;6.50;5.27;;;7.10;99.90;;;;;;4995086;28;20259;-89
2021/11/24 04:21:07;;;;;;;9.00;5.97;;;7.10;99.90;;;;;;4994974;28;20208;-90
2021/11/24 04:23:32;;;;;;;7.73;5.20;;;7.10;99.90;;;;;;4995426;28;20315;-90
2021/11/24 04:25:58;;;;;;;8.83;5.10;;;7.20;99.90;;;;;;4994186;28;20186;-91
2021/11/24 04:28:23;;;;;;;8.90;5.00;;;7.20;99.90;;;;;;4994614;28;20185;-89
2021/11/24 04:30:50;;;;;;;7.77;5.80;;;7.20;99.90;;;;;;4993941;28;20538;-89
2021/11/24 04:33:16;;;;;;;8.13;5.70;;;7.20;99.90;;;;;;4994581;28;20174;-89
2021/11/24 04:35:43;;;;;;;9.83;5.47;;;7.20;99.90;;;;;;4995032;28;20414;-90
2021/11/24 04:38:08;;;;;;;7.27;4.80;;;7.20;99.90;;;;;;4994967;28;20444;-91
2021/11/24 04:40:35;;;;;;;7.93;4.63;;;7.20;99.90;;;;;;4995108;28;20991;-89
2021/11/24 04:43:03;;;;;;;8.73;5.20;;;7.20;99.90;;;;;;4994871;28;20181;-89
2021/11/24 04:45:29;;;;;;;6.17;4.57;;;7.20;99.90;;;;;;4995088;28;20940;-90
2021/11/24 04:47:54;;;;;;;7.93;5.43;;;7.20;99.90;;;;;;4977559;28;20813;-90
2021/11/24 04:50:20;;;;;;;6.83;5.30;;;7.20;99.90;;;;;;4995259;28;20421;-91
2021/11/24 04:52:47;;;;;;;10.30;5.53;;;7.20;99.90;;;;;;4994970;28;20226;-89
2021/11/24 04:55:14;;;;;;;7.80;5.37;;;7.20;99.90;;;;;;4994791;28;20447;-90
2021/11/24 04:57:40;;;;;;;8.83;5.90;;;7.30;99.90;;;;;;4996175;28;20463;-91
2021/11/24 05:00:10;;;;;;;10.23;5.13;;;7.30;99.90;;;;;;4995116;28;20939;-93
2021/11/24 05:02:35;;;;;;;7.67;4.83;;;7.30;99.90;;;;;;4994462;28;20421;-91
2021/11/24 05:05:01;;;;;;;6.57;4.63;;;7.30;99.90;;;;;;4995073;28;20426;-92
2021/11/24 05:07:27;;;;;;;8.37;5.63;;;7.30;99.90;;;;;;4994880;28;20212;-91
2021/11/24 05:09:52;;;;;;;6.97;4.70;;;7.30;99.90;;;;;;4994948;28;20646;-91
2021/11/24 05:12:18;;;;;;;8.13;5.27;;;7.30;99.90;;;;;;4994955;28;20176;-92
2021/11/24 05:14:46;;;;;;;8.50;5.20;;;7.30;99.90;;;;;;4977403;28;20195;-92
2021/11/24 05:17:15;;;;;;;7.57;4.93;;;7.30;99.90;;;;;;4994634;28;20167;-91
2021/11/24 05:19:46;;;;;;;8.83;5.00;;;7.30;99.90;;;;;;4995021;28;20575;-92
2021/11/24 05:22:12;;;;;;;8.40;5.00;;;7.30;99.90;;;;;;4994821;28;20404;-91
2021/11/24 05:24:37;;;;;;;9.10;5.57;;;7.30;99.90;;;;;;4994684;28;20421;-91
2021/11/24 05:27:04;;;;;;;8.50;5.73;;;7.30;99.90;;;;;;4994965;28;20536;-91
2021/11/24 05:29:30;;;;;;;8.20;4.80;;;7.30;99.90;;;;;;4994881;28;20169;-91
2021/11/24 05:31:55;;;;;;;7.77;5.40;;;7.30;99.90;;;;;;4994348;28;20439;-90
2021/11/24 05:34:21;;;;;;;5.30;3.70;;;7.30;99.90;;;;;;4993881;28;20533;-89
2021/11/24 05:36:46;;;;;;;8.33;4.80;;;7.30;99.90;;;;;;4994174;28;20173;-91
2021/11/24 05:39:12;;;;;;;7.73;5.20;;;7.30;99.90;;;;;;4996285;28;20223;-90
2021/11/24 05:41:41;;;;;;;8.90;5.60;;;7.30;99.90;;;;;;4997883;28;20184;-89
2021/11/24 05:44:20;;;;;;;8.70;5.60;;;7.30;99.90;;;;;;4997912;28;20164;-88
2021/11/24 05:46:54;;;;;;;7.57;4.60;;;7.20;99.90;;;;;;5012692;28;20437;-90
2021/11/24 05:49:20;;;;;;;8.40;4.73;;;7.30;99.90;;;;;;4998083;28;20883;-91
2021/11/24 05:51:46;;;;;;;6.33;4.00;;;7.30;99.90;;;;;;4998086;28;20412;-92
2021/11/24 05:54:12;;;;;;;8.07;5.20;;;7.30;99.90;;;;;;4997046;28;20503;-91
2021/11/24 05:56:39;;;;;;;10.80;5.13;;;7.30;99.90;;;;;;5007067;28;20500;-91
2021/11/24 05:59:09;;;;;;;7.27;4.50;;;7.30;99.90;;;;;;5017644;28;20769;-92
2021/11/24 06:01:36;;;;;;;7.10;4.80;;;7.30;99.90;;;;;;5017322;28;20431;-91
2021/11/24 06:04:03;;;;;;;6.80;3.97;;;7.30;99.90;;;;;;5017473;28;20422;-92
2021/11/24 06:06:29;;;;;;;6.60;4.50;;;7.30;99.90;;;;;;5017354;28;20424;-91
2021/11/24 06:08:54;;;;;;;7.03;4.73;;;7.30;99.90;;;;;;5017331;28;20414;-91
2021/11/24 06:11:20;;;;;;;6.37;5.30;;;7.30;99.90;;;;;;5017328;28;20420;-91
2021/11/24 06:13:46;;;;;;;6.90;4.43;;;7.30;99.90;;;;;;5017481;28;20231;-91
2021/11/24 06:16:12;;;;;;;4.43;3.60;;;7.30;99.90;;;;;;4994437;28;20192;-91
2021/11/24 06:18:38;;;;;;;5.57;4.13;;;7.30;99.90;;;;;;4977877;28;20422;-91
2021/11/24 06:21:03;;;;;;;7.63;4.67;;;7.30;99.90;;;;;;4987652;28;20299;-91
2021/11/24 06:23:29;;;;;;;6.97;5.40;;;7.30;99.90;;;;;;4997088;28;20240;-91
2021/11/24 06:25:55;;;;;;;7.40;4.90;;;7.30;99.90;;;;;;4991778;28;20251;-91
2021/11/24 06:28:20;;;;;;;5.67;3.53;;;7.30;99.90;;;;;;4978027;28;20257;-92
2021/11/24 06:30:46;;;;;;;7.10;4.20;;;7.30;99.90;;;;;;4961570;28;20269;-91
2021/11/24 06:33:11;;;;;;;6.40;4.13;;;7.30;99.90;;;;;;4982526;28;20209;-92
2021/11/24 06:35:37;;;;;;;7.07;4.10;;;7.30;99.90;;;;;;4985772;28;20175;-90
2021/11/24 06:38:03;;;;;;;7.20;4.50;;;7.30;99.90;;;;;;4983317;28;20190;-84
2021/11/24 06:40:28;;;;;;;7.30;4.77;;;7.30;99.90;;;;;;4983048;28;20661;-90
2021/11/24 06:42:54;;;;;;;7.60;5.03;;;7.30;99.90;;;;;;4979001;28;20302;-92
2021/11/24 06:45:20;;;;;;;7.50;5.13;;;7.30;99.90;;;;;;4961214;28;20171;-88
2021/11/24 06:47:46;;;;;;;7.40;4.90;;;7.30;99.90;;;;;;4979456;28;20267;-90
2021/11/24 06:50:13;;;;;;;6.97;4.30;;;7.30;99.90;;;;;;4976940;28;20941;-89
2021/11/24 06:52:39;;;;;;;5.90;4.43;;;7.30;99.90;;;;;;4977103;28;20226;-87
2021/11/24 06:55:06;;;;;;;7.43;4.20;;;7.30;99.90;;;;;;4977139;28;20422;-87
2021/11/24 06:57:32;;;;;;;6.63;4.57;;;7.30;99.90;;;;;;4976710;28;20857;-91
2021/11/24 06:59:57;;;;;;;6.23;4.00;;;7.30;99.90;;;;;;4979686;28;20443;-89
2021/11/24 07:02:23;;;;;;;8.30;4.73;;;7.30;99.90;;;;;;4977412;28;20217;-90
2021/11/24 07:04:48;;;;;;;8.70;4.77;;;7.30;99.90;;;;;;4981096;28;20260;-89
2021/11/24 07:07:14;;;;;;;6.23;4.83;;;7.30;99.90;;;;;;4984756;28;20179;-88
2021/11/24 07:09:40;;;;;;;8.83;4.80;;;7.30;99.90;;;;;;4982260;28;20237;-91
2021/11/24 07:12:08;;;;;;;8.07;5.03;;;7.20;99.90;;;;;;4984130;28;20207;-90
2021/11/24 07:14:34;;;;;;;11.17;5.93;;;7.20;99.90;;;;;;4993137;28;20770;-92
2021/11/24 07:16:59;;;;;;;9.63;6.07;;;7.30;99.90;;;;;;4987830;28;20493;-91
2021/11/24 07:19:26;;;;;;;10.70;6.20;;;7.30;99.90;;;;;;4976469;28;20456;-91
2021/11/24 07:21:52;;;;;;;11.77;6.30;;;7.30;99.90;;;;;;4995666;28;20181;-90
2021/11/24 07:24:19;;;;;;;9.33;6.07;;;7.20;99.90;;;;;;4994487;28;21100;-91
2021/11/24 07:26:45;;;;;;;10.17;6.30;;;7.20;99.90;;;;;;4991512;28;20425;-89
2021/11/24 07:29:11;;;;;;;17.30;7.53;;;7.30;99.90;;;;;;4993416;28;20408;-89
2021/11/24 07:31:37;;;;;;;10.50;6.20;;;7.30;99.90;;;;;;4994996;28;20425;-90
2021/11/24 07:34:03;;;;;;;12.70;7.20;;;7.20;99.90;;;;;;4996040;28;20175;-91
2021/11/24 07:36:28;;;;;;;14.50;6.60;;;7.20;99.90;;;;;;4996014;28;20265;-89
2021/11/24 07:38:57;;;;;;;13.47;7.50;;;7.20;99.90;;;;;;4995888;28;20412;-91
2021/11/24 07:41:23;;;;;;;12.80;7.93;;;7.30;99.90;;;;;;4996278;28;20202;-92
2021/11/24 07:43:49;;;;;;;11.20;7.50;;;7.30;99.90;;;;;;4996166;28;20422;-91
2021/11/24 07:46:16;;;;;;;13.47;7.87;;;7.30;99.90;;;;;;4995841;28;20940;-91
2021/11/24 07:48:41;;;;;;;13.00;7.30;;;7.30;99.90;;;;;;4996602;28;20163;-91
2021/11/24 07:51:09;;;;;;;11.47;6.53;;;7.30;99.90;;;;;;4995920;28;20440;-90
2021/11/24 07:53:34;;;;;;;13.97;7.17;;;7.30;99.90;;;;;;4996013;28;20181;-89
2021/11/24 07:56:00;;;;;;;12.30;8.03;;;7.30;99.90;;;;;;4996279;28;20559;-92
2021/11/24 07:58:26;;;;;;;14.27;6.63;;;7.30;99.90;;;;;;4996137;28;20194;-92
2021/11/24 08:00:51;;;;;;;12.53;7.87;;;7.40;99.90;;;;;;4996735;28;20208;-90
2021/11/24 08:03:17;;;;;;;11.93;8.00;;;7.40;99.90;;;;;;4997085;28;20166;-91
2021/11/24 08:05:42;;;;;;;12.60;8.60;;;7.40;99.90;;;;;;4994082;28;20182;-88
2021/11/24 08:08:08;;;;;;;16.90;8.63;;;7.30;99.90;;;;;;5010809;28;20182;-87
2021/11/24 08:10:34;;;;;;;12.43;7.63;;;7.30;99.90;;;;;;4993994;28;20178;-90
2021/11/24 08:12:59;;;;;;;15.57;10.03;;;7.40;99.90;;;;;;4977687;28;20174;-89
2021/11/24 08:15:25;;;;;;;15.33;8.40;;;7.30;99.90;;;;;;4989478;28;20233;-88
2021/11/24 08:17:51;;;;;;;14.13;9.30;;;7.40;99.90;;;;;;4976330;28;20181;-88
2021/11/24 08:20:16;;;;;;;14.27;8.63;;;7.40;99.90;;;;;;4986314;28;20201;-87
2021/11/24 08:22:42;;;;;;;13.07;8.97;;;7.30;99.90;;;;;;4990966;28;20200;-88
2021/11/24 08:25:08;;;;;;;13.50;10.07;;;7.40;99.90;;;;;;4975004;28;20184;-89
2021/11/24 08:27:35;;;;;;;15.30;7.70;;;7.40;99.90;;;;;;4976234;28;20178;-89
2021/11/24 08:30:03;;;;;;;14.63;7.73;;;7.40;99.90;;;;;;4986154;28;20411;-88
2021/11/24 08:32:29;;;;;;;18.80;9.83;;;7.50;99.90;;;;;;4990439;28;20421;-89
2021/11/24 08:34:54;;;;;;;15.27;7.10;;;7.50;99.90;;;;;;4977381;28;20502;-89
2021/11/24 08:37:20;;;;;;;14.23;7.13;;;7.60;99.90;;;;;;4967616;28;20170;-89
2021/11/24 08:39:47;;;;;;;13.30;6.90;;;7.60;99.90;;;;;;4977366;28;20317;-89
2021/11/24 08:42:13;;;;;;;9.97;6.47;;;7.60;99.90;;;;;;4983043;28;20223;-85
2021/11/24 08:44:38;;;;;;;10.80;7.20;;;7.70;99.90;;;;;;4982388;28;20433;-85
2021/11/24 08:47:04;;;;;;;9.40;6.10;;;7.80;99.90;;;;;;4983562;28;20243;-84
2021/11/24 08:49:30;;;;;;;10.30;6.13;;;7.80;99.90;;;;;;4981831;28;20178;-84
2021/11/24 08:51:55;;;;;;;10.57;6.23;;;7.70;99.90;;;;;;4982959;28;20173;-84
2021/11/24 08:54:21;;;;;;;10.00;7.23;;;7.80;99.90;;;;;;4983351;28;20182;-85
2021/11/24 08:56:47;;;;;;;10.53;6.37;;;7.80;99.90;;;;;;4990601;28;20222;-85
2021/11/24 08:59:12;;;;;;;8.73;5.90;;;7.80;99.90;;;;;;4993534;28;20170;-85
2021/11/24 09:01:39;;;;;;;10.87;6.03;;;7.80;99.90;;;;;;4992801;28;20538;-85
2021/11/24 09:04:05;;;;;;;9.60;6.30;;;7.80;99.90;;;;;;4993529;28;20169;-85
2021/11/24 09:06:30;;;;;;;11.97;7.50;;;7.80;99.90;;;;;;4993614;28;20425;-85
2021/11/24 09:08:56;;;;;;;10.23;6.70;;;7.80;99.90;;;;;;4993484;28;20415;-83
2021/11/24 09:11:22;;;;;;;14.07;7.90;;;7.80;99.90;;;;;;4993598;28;20170;-85
2021/11/24 09:13:48;;;;;;;12.30;6.63;;;7.80;99.90;;;;;;4995340;28;20209;-85
2021/11/24 09:16:14;;;;;;;9.67;6.43;;;7.80;99.90;;;;;;4997208;28;20467;-85
2021/11/24 09:18:41;;;;;;;10.93;8.20;;;7.80;99.90;;;;;;4996559;28;20415;-84
2021/11/24 09:21:06;;;;;;;13.40;8.30;;;7.80;99.90;;;;;;4995994;28;20558;-85
2021/11/24 09:23:33;;;;;;;13.93;8.10;;;7.90;99.90;;;;;;4996890;28;20496;-86
2021/11/24 09:26:15;;;;;;;11.73;7.80;;;7.90;99.90;;;;;;4997431;28;20416;-85
2021/11/24 09:28:42;;;;;;;10.03;7.40;;;7.90;99.90;;;;;;4979712;28;20435;-85
2021/11/24 09:31:08;;;;;;;11.60;7.30;;;7.90;99.90;;;;;;4996966;28;20454;-84
2021/11/24 09:33:40;;;;;;;13.17;7.20;;;7.90;99.90;;;;;;4997193;28;20425;-84
2021/11/24 09:36:07;;;;;;;11.70;6.97;;;7.90;99.90;;;;;;4997209;28;20434;-86
2021/11/24 09:38:32;;;;;;;11.73;7.00;;;7.90;99.90;;;;;;4979645;28;20442;-84
2021/11/24 09:41:07;;;;;;;12.00;7.00;;;8.00;99.90;;;;;;4996955;28;20576;-83
2021/11/24 09:43:35;;;;;;;11.47;6.87;;;8.00;99.90;;;;;;4997072;28;20180;-84
2021/11/24 09:46:03;;;;;;;12.63;7.53;;;8.10;99.90;;;;;;4996312;28;20425;-84
2021/11/24 09:48:30;;;;;;;14.67;7.93;;;8.10;99.90;;;;;;4996805;28;20424;-84
2021/11/24 09:50:56;;;;;;;12.73;6.77;;;8.10;99.90;;;;;;4997150;28;20426;-84
2021/11/24 09:53:23;;;;;;;12.60;8.60;;;8.10;99.90;;;;;;4979513;28;20891;-84
2021/11/24 09:55:49;;;;;;;11.17;6.80;;;8.10;99.90;;;;;;4996547;28;20463;-84
2021/11/24 09:58:15;;;;;;;11.33;7.83;;;8.20;99.90;;;;;;4979424;28;20415;-84
2021/11/24 10:00:41;;;;;;;12.23;8.00;;;8.20;99.90;;;;;;4996753;28;20206;-84
2021/11/24 10:03:07;;;;;;;14.13;7.63;;;8.20;99.90;;;;;;4997012;28;20414;-85
2021/11/24 10:05:35;;;;;;;12.73;7.10;;;8.20;99.90;;;;;;4997057;28;20505;-85
2021/11/24 10:08:00;;;;;;;17.13;10.47;;;8.20;99.90;;;;;;4997016;28;20167;-84
2021/11/24 10:10:27;;;;;;;14.93;8.70;;;8.20;99.90;;;;;;4997266;28;20480;-85
2021/11/24 10:12:53;;;;;;;15.27;10.03;;;8.30;99.90;;;;;;4997136;28;20175;-85
2021/11/24 10:15:39;;;;;;;14.00;8.90;;;8.40;99.90;;;;;;4996676;28;20522;-85
2021/11/24 10:18:25;;;;;;;13.90;7.97;;;8.30;99.90;;;;;;4995631;28;20429;-85
2021/11/24 10:21:09;;;;;;;11.53;6.97;;;8.20;99.90;;;;;;4996961;28;20566;-83
2021/11/24 10:23:44;;;;;;;13.50;7.13;;;8.20;99.90;;;;;;4997065;28;20775;-86
2021/11/24 10:26:34;;;;;;;10.90;6.40;;;8.20;99.90;;;;;;4995879;28;20417;-86
2021/11/24 10:28:59;;;;;;;9.77;6.03;;;8.30;99.90;;;;;;4995217;28;20513;-85
2021/11/24 10:31:45;;;;;;;14.67;7.60;;;8.50;99.90;;;;;;4995393;28;20865;-85
2021/11/24 10:34:20;;;;;;;11.67;8.00;;;8.40;99.90;;;;;;4994609;28;20187;-85
2021/11/24 10:37:16;;;;;;;11.90;6.53;;;8.40;99.90;;;;;;4994882;28;20417;-85
2021/11/24 10:39:42;;;;;;;12.57;7.20;;;8.40;99.90;;;;;;4994845;28;20450;-83
2021/11/24 10:42:14;;;;;;;12.30;6.10;;;8.40;99.90;;;;;;4986640;28;20443;-82
2021/11/24 10:44:46;;;;;;;10.97;6.97;;;8.50;99.90;;;;;;4975689;28;20258;-83
2021/11/24 10:47:13;;;;;;;11.97;6.80;;;8.50;99.90;;;;;;4989566;28;20821;-82
2021/11/24 10:49:46;;;;;;;15.90;7.07;;;8.50;99.90;;;;;;4995137;28;20469;-83
2021/11/24 10:52:23;;;;;;;8.80;6.03;;;8.50;99.90;;;;;;4977708;28;20428;-82
2021/11/24 10:55:14;;;;;;;9.43;5.83;;;8.60;99.90;;;;;;4994977;28;20462;-83
2021/11/24 10:57:46;;;;;;;9.57;6.50;;;8.60;99.90;;;;;;4994795;28;20461;-82
2021/11/24 11:00:15;;;;;;;11.30;6.87;;;8.60;99.90;;;;;;4994187;28;20469;-83
2021/11/24 11:02:46;;;;;;;10.20;5.60;;;8.70;99.90;;;;;;4994835;28;20421;-84
2021/11/24 11:05:22;;;;;;;10.27;5.20;;;8.70;99.90;;;;;;4994972;28;20414;-83
2021/11/24 11:07:52;;;;;;;9.70;4.93;;;8.60;99.90;;;;;;4994824;28;20549;-82
2021/11/24 11:10:20;;;;;;;9.00;5.70;;;8.60;99.90;;;;;;4994522;28;20909;-83
2021/11/24 11:12:48;;;;;;;7.03;4.23;;;8.60;99.90;;;;;;4994598;28;20558;-82
2021/11/24 11:15:29;;;;;;;10.43;6.83;;;8.70;99.90;;;;;;4991407;28;20968;-83
2021/11/24 11:18:06;;;;;;;9.23;5.50;;;8.60;99.90;;;;;;4977168;28;20844;-83
2021/11/24 11:20:35;;;;;;;7.37;5.73;;;8.70;99.90;;;;;;4993494;28;20470;-83
2021/11/24 11:23:23;;;;;;;9.23;5.27;;;8.80;99.90;;;;;;4994593;28;20904;-83
2021/11/24 11:25:52;;;;;;;7.47;5.70;;;8.80;99.90;;;;;;4994727;28;20420;-85
2021/11/24 11:28:20;;;;;;;6.70;4.30;;;8.70;99.90;;;;;;4994552;28;20406;-81
2021/11/24 11:30:50;;;;;;;6.70;4.33;;;8.80;99.90;;;;;;4993546;28;20795;-83
2021/11/24 11:33:19;;;;;;;9.47;6.10;;;8.90;99.90;;;;;;4994206;28;20965;-82
2021/11/24 11:35:45;;;;;;;6.30;3.90;;;8.80;99.90;;;;;;4991792;28;20441;-84
2021/11/24 11:38:12;;;;;;;7.57;4.57;;;8.90;99.90;;;;;;4993842;28;20418;-84
2021/11/24 11:40:41;;;;;;;6.57;4.53;;;8.90;99.90;;;;;;4993267;28;20467;-84
2021/11/24 11:43:09;;;;;;;5.23;3.40;;;9.20;99.90;;;;;;4993924;28;20411;-84
2021/11/24 11:45:36;;;;;;;7.33;3.83;;;9.30;99.90;;;;;;4993707;28;20468;-80
2021/11/24 11:48:04;;;;;;;6.50;3.10;;;9.20;99.90;;;;;;4994490;28;20418;-82
2021/11/24 11:50:57;;;;;;;6.13;4.43;;;9.00;99.90;;;;;;4994189;28;20416;-82
2021/11/24 11:53:30;;;;;;;6.30;3.73;;;9.00;99.90;;;;;;4994521;28;20510;-82
2021/11/24 11:56:16;;;;;;;6.10;3.93;;;8.90;99.90;;;;;;4994262;28;20473;-83
2021/11/24 11:58:55;;;;;;;5.63;2.90;;;9.00;99.90;;;;;;4994196;28;20443;-83
2021/11/24 12:01:26;;;;;;;10.23;3.40;;;9.20;99.90;;;;;;4994294;28;20461;-83
2021/11/24 12:04:07;;;;;;;6.60;3.87;;;9.30;99.90;;;;;;4994368;28;20511;-82
2021/11/24 12:06:52;;;;;;;6.63;3.47;;;9.30;99.90;;;;;;4994326;28;20438;-81
2021/11/24 12:09:28;;;;;;;6.57;3.77;;;9.40;99.90;;;;;;4994027;28;20416;-82
2021/11/24 12:12:09;;;;;;;7.00;4.23;;;9.40;99.90;;;;;;4976527;28;20435;-82
2021/11/24 12:14:46;;;;;;;5.93;3.20;;;9.30;99.90;;;;;;4994237;28;20749;-83
2021/11/24 12:17:27;;;;;;;6.27;3.60;;;9.30;99.90;;;;;;4993530;28;20419;-83
2021/11/24 12:19:53;;;;;;;6.73;4.27;;;9.20;99.90;;;;;;5009158;28;20451;-82
2021/11/24 12:22:43;;;;;;;8.97;5.40;;;9.10;99.90;;;;;;4993988;28;20419;-82
2021/11/24 12:25:32;;;;;;;10.03;6.87;;;9.10;99.90;;;;;;4994321;28;20413;-83
2021/11/24 12:27:58;;;;;;;12.10;7.10;;;9.00;99.90;;;;;;4981959;28;20596;-81
2021/11/24 12:30:35;;;;;;;11.90;7.30;;;9.10;99.90;;;;;;5008906;28;20529;-82
2021/11/24 12:33:07;;;;;;;10.20;6.57;;;9.00;99.90;;;;;;5009546;28;20714;-83
2021/11/24 12:35:36;;;;;;;10.67;7.67;;;8.80;99.90;;;;;;4993999;28;20476;-82
2021/11/24 12:38:03;;;;;;;12.80;7.23;;;8.80;99.90;;;;;;4976586;28;20422;-82
2021/11/24 12:40:31;;;;;;;11.73;8.60;;;8.70;99.90;;;;;;4993876;28;20499;-82
2021/11/24 12:42:58;;;;;;;11.53;7.63;;;8.80;99.90;;;;;;4994277;28;20418;-82
2021/11/24 12:45:24;;;;;;;11.17;7.37;;;8.70;99.90;;;;;;4985294;28;20445;-82
2021/11/24 12:48:00;;;;;;;11.17;7.73;;;8.70;99.90;;;;;;4989841;28;20458;-82
2021/11/24 12:50:27;;;;;;;11.17;7.63;;;8.70;99.90;;;;;;4993906;28;20213;-83
2021/11/24 12:52:56;;;;;;;12.43;7.60;;;8.70;99.90;;;;;;4993820;28;20526;-82
2021/11/24 12:55:22;;;;;;;11.93;6.77;;;8.60;99.90;;;;;;4993952;28;20525;-82